sensor_id;sensor_type;location;lat;lon;timestamp;pressure;altitude;pressure_sealevel;temperature;humidity
76496;BME280;65329;52.544;4.662;2022-12-29T00:00:14;68066.63;;;12.26;0.00
76496;BME280;65329;52.544;4.662;2022-12-29T00:02:41;68128.00;;;12.27;0.00
76496;BME280;65329;52.544;4.662;2022-12-29T00:05:08;68077.06;;;12.28;0.00
76496;BME280;65329;52.544;4.662;2022-12-29T00:07:35;68127.03;;;12.29;0.00
76496;BME280;65329;52.544;4.662;2022-12-29T00:10:02;68130.47;;;12.32;0.00
76496;BME280;65329;52.544;4.662;2022-12-29T00:12:29;68108.59;;;12.29;0.00
76496;BME280;65329;52.544;4.662;2022-12-29T00:15:15;68117.31;;;12.30;0.00
76496;BME280;65329;52.544;4.662;2022-12-29T00:18:01;68102.03;;;12.28;0.00
76496;BME280;65329;52.544;4.662;2022-12-29T00:20:28;68078.03;;;12.26;0.00
76496;BME280;65329;52.544;4.662;2022-12-29T00:23:13;68120.44;;;12.28;0.00
76496;BME280;65329;52.544;4.662;2022-12-29T00:26:13;68085.59;;;12.26;0.00
76496;BME280;65329;52.544;4.662;2022-12-29T00:28:59;68122.00;;;12.27;0.00
76496;BME280;65329;52.544;4.662;2022-12-29T00:31:45;68084.03;;;12.27;0.00
76496;BME280;65329;52.544;4.662;2022-12-29T00:34:37;68125.84;;;12.28;0.00
76496;BME280;65329;52.544;4.662;2022-12-29T00:37:23;68092.00;;;12.24;0.00
76496;BME280;65329;52.544;4.662;2022-12-29T00:40:09;68027.13;;;12.27;0.00
76496;BME280;65329;52.544;4.662;2022-12-29T00:42:54;68080.00;;;12.23;0.00
76496;BME280;65329;52.544;4.662;2022-12-29T00:45:41;68095.09;;;12.22;0.00
76496;BME280;65329;52.544;4.662;2022-12-29T00:48:08;68071.31;;;12.23;0.00
76496;BME280;65329;52.544;4.662;2022-12-29T00:50:35;68121.81;;;12.24;0.00
76496;BME280;65329;52.544;4.662;2022-12-29T00:53:01;68083.69;;;12.22;0.00
76496;BME280;65329;52.544;4.662;2022-12-29T00:55:28;68094.72;;;12.24;0.00
76496;BME280;65329;52.544;4.662;2022-12-29T00:57:55;68102.63;;;12.29;0.00
76496;BME280;65329;52.544;4.662;2022-12-29T01:00:21;68128.34;;;12.32;0.00
76496;BME280;65329;52.544;4.662;2022-12-29T01:02:48;68125.84;;;12.28;0.00
76496;BME280;65329;52.544;4.662;2022-12-29T01:05:15;68127.78;;;12.32;0.00
76496;BME280;65329;52.544;4.662;2022-12-29T01:07:44;68131.63;;;12.33;0.00
76496;BME280;65329;52.544;4.662;2022-12-29T01:10:11;68064.69;;;12.29;0.00
76496;BME280;65329;52.544;4.662;2022-12-29T01:12:37;68116.19;;;12.29;0.00
76496;BME280;65329;52.544;4.662;2022-12-29T01:15:10;68121.59;;;12.29;0.00
76496;BME280;65329;52.544;4.662;2022-12-29T01:17:37;68098.00;;;12.25;0.00
76496;BME280;65329;52.544;4.662;2022-12-29T01:20:04;68070.31;;;12.24;0.00
76496;BME280;65329;52.544;4.662;2022-12-29T01:22:31;68094.88;;;12.27;0.00
76496;BME280;65329;52.544;4.662;2022-12-29T01:24:57;68098.75;;;12.28;0.00
76496;BME280;65329;52.544;4.662;2022-12-29T01:27:24;68086.34;;;12.29;0.00
76496;BME280;65329;52.544;4.662;2022-12-29T01:29:51;68142.88;;;12.31;0.00
76496;BME280;65329;52.544;4.662;2022-12-29T01:32:17;68102.63;;;12.29;0.00
76496;BME280;65329;52.544;4.662;2022-12-29T01:34:44;68083.66;;;12.29;0.00
76496;BME280;65329;52.544;4.662;2022-12-29T01:37:11;68086.00;;;12.24;0.00
76496;BME280;65329;52.544;4.662;2022-12-29T01:39:38;68087.16;;;12.25;0.00
76496;BME280;65329;52.544;4.662;2022-12-29T01:42:16;68096.47;;;12.19;0.00
76496;BME280;65329;52.544;4.662;2022-12-29T01:44:57;68109.84;;;12.16;0.00
76496;BME280;65329;52.544;4.662;2022-12-29T01:50:04;68071.34;;;12.16;0.00
76496;BME280;65329;52.544;4.662;2022-12-29T01:52:33;68077.72;;;12.14;0.00
76496;BME280;65329;52.544;4.662;2022-12-29T01:55:03;68095.72;;;12.16;0.00
76496;BME280;65329;52.544;4.662;2022-12-29T01:57:34;68128.88;;;12.09;0.00
76496;BME280;65329;52.544;4.662;2022-12-29T02:00:11;68137.56;;;12.10;0.00
76496;BME280;65329;52.544;4.662;2022-12-29T02:02:45;68051.66;;;12.06;0.00
76496;BME280;65329;52.544;4.662;2022-12-29T02:05:47;68071.44;;;12.02;0.00
76496;BME280;65329;52.544;4.662;2022-12-29T02:08:17;68088.09;;;12.00;0.00
76496;BME280;65329;52.544;4.662;2022-12-29T02:10:45;68100.47;;;11.99;0.00
76496;BME280;65329;52.544;4.662;2022-12-29T02:13:15;68107.84;;;11.96;0.00
76496;BME280;65329;52.544;4.662;2022-12-29T02:24:16;68078.66;;;11.89;0.00
76496;BME280;65329;52.544;4.662;2022-12-29T02:29:51;68045.00;;;11.88;0.00
76496;BME280;65329;52.544;4.662;2022-12-29T02:32:40;68077.50;;;11.88;0.00
76496;BME280;65329;52.544;4.662;2022-12-29T02:40:40;68065.34;;;11.85;0.00
76496;BME280;65329;52.544;4.662;2022-12-29T02:43:23;68028.22;;;11.81;0.00
76496;BME280;65329;52.544;4.662;2022-12-29T02:45:57;68061.13;;;11.79;0.00
76496;BME280;65329;52.544;4.662;2022-12-29T02:51:03;68025.50;;;11.81;0.00
76496;BME280;65329;52.544;4.662;2022-12-29T02:53:33;68051.09;;;11.75;0.00
76496;BME280;65329;52.544;4.662;2022-12-29T02:56:20;68076.44;;;11.73;0.00
76496;BME280;65329;52.544;4.662;2022-12-29T02:58:46;68079.31;;;11.76;0.00
76496;BME280;65329;52.544;4.662;2022-12-29T03:09:57;68070.47;;;11.66;0.00
76496;BME280;65329;52.544;4.662;2022-12-29T03:12:36;68066.59;;;11.65;0.00
76496;BME280;65329;52.544;4.662;2022-12-29T03:15:41;68028.13;;;11.57;0.00
76496;BME280;65329;52.544;4.662;2022-12-29T03:21:26;67998.56;;;11.52;0.00
76496;BME280;65329;52.544;4.662;2022-12-29T03:24:19;68032.56;;;11.58;0.00
76496;BME280;65329;52.544;4.662;2022-12-29T03:26:47;68005.50;;;11.58;0.00
76496;BME280;65329;52.544;4.662;2022-12-29T03:29:18;68041.09;;;11.56;0.00
76496;BME280;65329;52.544;4.662;2022-12-29T03:31:48;68030.09;;;11.54;0.00
76496;BME280;65329;52.544;4.662;2022-12-29T03:34:18;68050.97;;;11.51;0.00
76496;BME280;65329;52.544;4.662;2022-12-29T03:37:01;68018.31;;;11.48;0.00
76496;BME280;65329;52.544;4.662;2022-12-29T03:39:31;67996.09;;;11.48;0.00
76496;BME280;65329;52.544;4.662;2022-12-29T03:42:02;68040.94;;;11.47;0.00
76496;BME280;65329;52.544;4.662;2022-12-29T03:44:36;68045.03;;;11.43;0.00
76496;BME280;65329;52.544;4.662;2022-12-29T03:47:03;68026.44;;;11.48;0.00
76496;BME280;65329;52.544;4.662;2022-12-29T03:49:30;68030.72;;;11.47;0.00
76496;BME280;65329;52.544;4.662;2022-12-29T03:51:57;68031.84;;;11.48;0.00
76496;BME280;65329;52.544;4.662;2022-12-29T03:54:25;68044.41;;;11.50;0.00
76496;BME280;65329;52.544;4.662;2022-12-29T03:56:52;68028.75;;;11.50;0.00
76496;BME280;65329;52.544;4.662;2022-12-29T03:59:29;68051.56;;;11.51;0.00
76496;BME280;65329;52.544;4.662;2022-12-29T04:01:56;68049.44;;;11.52;0.00
76496;BME280;65329;52.544;4.662;2022-12-29T04:04:23;68112.84;;;11.53;0.00
76496;BME280;65329;52.544;4.662;2022-12-29T04:06:50;68024.50;;;11.51;0.00
76496;BME280;65329;52.544;4.662;2022-12-29T04:09:16;68047.72;;;11.50;0.00
76496;BME280;65329;52.544;4.662;2022-12-29T04:11:46;67995.09;;;11.49;0.00
76496;BME280;65329;52.544;4.662;2022-12-29T04:14:13;68049.84;;;11.50;0.00
76496;BME280;65329;52.544;4.662;2022-12-29T04:16:40;68015.63;;;11.48;0.00
76496;BME280;65329;52.544;4.662;2022-12-29T04:19:07;68069.16;;;11.48;0.00
76496;BME280;65329;52.544;4.662;2022-12-29T04:21:35;67994.00;;;11.41;0.00
76496;BME280;65329;52.544;4.662;2022-12-29T04:24:03;68015.63;;;11.48;0.00
76496;BME280;65329;52.544;4.662;2022-12-29T04:26:37;67999.97;;;11.42;0.00
76496;BME280;65329;52.544;4.662;2022-12-29T04:29:24;67997.88;;;11.42;0.00
76496;BME280;65329;52.544;4.662;2022-12-29T04:32:06;68037.72;;;11.39;0.00
76496;BME280;65329;52.544;4.662;2022-12-29T04:34:37;68051.63;;;11.37;0.00
76496;BME280;65329;52.544;4.662;2022-12-29T04:37:04;68023.81;;;11.34;0.00
76496;BME280;65329;52.544;4.662;2022-12-29T04:39:31;67998.69;;;11.31;0.00
76496;BME280;65329;52.544;4.662;2022-12-29T04:41:59;68013.38;;;11.32;0.00
76496;BME280;65329;52.544;4.662;2022-12-29T04:44:26;68041.00;;;11.33;0.00
76496;BME280;65329;52.544;4.662;2022-12-29T04:47:03;68011.03;;;11.37;0.00
76496;BME280;65329;52.544;4.662;2022-12-29T04:49:59;68033.66;;;11.36;0.00
76496;BME280;65329;52.544;4.662;2022-12-29T04:52:57;68032.72;;;11.30;0.00
76496;BME280;65329;52.544;4.662;2022-12-29T04:55:25;68004.47;;;11.36;0.00
76496;BME280;65329;52.544;4.662;2022-12-29T04:57:52;68047.38;;;11.38;0.00
76496;BME280;65329;52.544;4.662;2022-12-29T05:00:19;68008.16;;;11.35;0.00
76496;BME280;65329;52.544;4.662;2022-12-29T05:02:46;68021.69;;;11.35;0.00
76496;BME280;65329;52.544;4.662;2022-12-29T05:05:15;68052.44;;;11.33;0.00
76496;BME280;65329;52.544;4.662;2022-12-29T05:07:46;68025.38;;;11.33;0.00
76496;BME280;65329;52.544;4.662;2022-12-29T05:10:13;68039.28;;;11.31;0.00
76496;BME280;65329;52.544;4.662;2022-12-29T05:12:40;68031.16;;;11.31;0.00
76496;BME280;65329;52.544;4.662;2022-12-29T05:15:08;68004.50;;;11.29;0.00
76496;BME280;65329;52.544;4.662;2022-12-29T05:17:35;68006.81;;;11.31;0.00
76496;BME280;65329;52.544;4.662;2022-12-29T05:20:05;68020.75;;;11.29;0.00
76496;BME280;65329;52.544;4.662;2022-12-29T05:22:34;68000.06;;;11.28;0.00
76496;BME280;65329;52.544;4.662;2022-12-29T05:25:01;68017.28;;;11.26;0.00
76496;BME280;65329;52.544;4.662;2022-12-29T05:27:31;67998.72;;;11.24;0.00
76496;BME280;65329;52.544;4.662;2022-12-29T05:30:08;67992.75;;;11.24;0.00
76496;BME280;65329;52.544;4.662;2022-12-29T05:32:35;68011.28;;;11.26;0.00
76496;BME280;65329;52.544;4.662;2022-12-29T05:35:02;67993.31;;;11.24;0.00
76496;BME280;65329;52.544;4.662;2022-12-29T05:37:31;67964.31;;;11.27;0.00
76496;BME280;65329;52.544;4.662;2022-12-29T05:39:58;67974.78;;;11.22;0.00
76496;BME280;65329;52.544;4.662;2022-12-29T05:42:27;68003.81;;;11.19;0.00
76496;BME280;65329;52.544;4.662;2022-12-29T05:45:16;67994.34;;;11.16;0.00
76496;BME280;65329;52.544;4.662;2022-12-29T05:47:52;67969.94;;;11.23;0.00
76496;BME280;65329;52.544;4.662;2022-12-29T05:50:38;68000.50;;;11.19;0.00
76496;BME280;65329;52.544;4.662;2022-12-29T05:53:10;67986.19;;;11.23;0.00
76496;BME280;65329;52.544;4.662;2022-12-29T05:55:37;68034.31;;;11.22;0.00
76496;BME280;65329;52.544;4.662;2022-12-29T05:58:12;67979.03;;;11.21;0.00
76496;BME280;65329;52.544;4.662;2022-12-29T06:00:40;67993.31;;;11.24;0.00
76496;BME280;65329;52.544;4.662;2022-12-29T06:03:08;68035.47;;;11.23;0.00
76496;BME280;65329;52.544;4.662;2022-12-29T06:05:36;67998.34;;;11.26;0.00
76496;BME280;65329;52.544;4.662;2022-12-29T06:08:03;67969.19;;;11.20;0.00
76496;BME280;65329;52.544;4.662;2022-12-29T06:10:30;67969.78;;;11.20;0.00
76496;BME280;65329;52.544;4.662;2022-12-29T06:13:07;68023.88;;;11.20;0.00
76496;BME280;65329;52.544;4.662;2022-12-29T06:15:36;68037.03;;;11.22;0.00
76496;BME280;65329;52.544;4.662;2022-12-29T06:18:06;67999.53;;;11.20;0.00
76496;BME280;65329;52.544;4.662;2022-12-29T06:20:33;67983.09;;;11.25;0.00
76496;BME280;65329;52.544;4.662;2022-12-29T06:23:02;67964.75;;;11.18;0.00
76496;BME280;65329;52.544;4.662;2022-12-29T06:25:30;67977.66;;;11.25;0.00
76496;BME280;65329;52.544;4.662;2022-12-29T06:27:58;68044.94;;;11.27;0.00
76496;BME280;65329;52.544;4.662;2022-12-29T06:30:25;68003.38;;;11.28;0.00
76496;BME280;65329;52.544;4.662;2022-12-29T06:32:52;68019.19;;;11.30;0.00
76496;BME280;65329;52.544;4.662;2022-12-29T06:35:19;68001.97;;;11.32;0.00
76496;BME280;65329;52.544;4.662;2022-12-29T06:37:50;68047.41;;;11.31;0.00
76496;BME280;65329;52.544;4.662;2022-12-29T06:40:16;67971.81;;;11.34;0.00
76496;BME280;65329;52.544;4.662;2022-12-29T06:43:18;68006.41;;;11.33;0.00
76496;BME280;65329;52.544;4.662;2022-12-29T06:46:04;67990.94;;;11.36;0.00
76496;BME280;65329;52.544;4.662;2022-12-29T06:48:31;68025.38;;;11.33;0.00
76496;BME280;65329;52.544;4.662;2022-12-29T06:50:57;68008.94;;;11.31;0.00
76496;BME280;65329;52.544;4.662;2022-12-29T06:53:24;67995.41;;;11.31;0.00
76496;BME280;65329;52.544;4.662;2022-12-29T06:55:51;68018.44;;;11.27;0.00
76496;BME280;65329;52.544;4.662;2022-12-29T06:58:18;68025.78;;;11.24;0.00
76496;BME280;65329;52.544;4.662;2022-12-29T07:00:44;67969.72;;;11.27;0.00
76496;BME280;65329;52.544;4.662;2022-12-29T07:03:11;67961.03;;;11.27;0.00
76496;BME280;65329;52.544;4.662;2022-12-29T07:05:37;67982.31;;;11.22;0.00
76496;BME280;65329;52.544;4.662;2022-12-29T07:08:04;68009.00;;;11.24;0.00
76496;BME280;65329;52.544;4.662;2022-12-29T07:10:31;68031.22;;;11.24;0.00
76496;BME280;65329;52.544;4.662;2022-12-29T07:12:58;68025.03;;;11.21;0.00
76496;BME280;65329;52.544;4.662;2022-12-29T07:15:24;67955.44;;;11.24;0.00
76496;BME280;65329;52.544;4.662;2022-12-29T07:17:51;68022.13;;;11.26;0.00
76496;BME280;65329;52.544;4.662;2022-12-29T07:20:18;68013.03;;;11.27;0.00
76496;BME280;65329;52.544;4.662;2022-12-29T07:22:52;68023.47;;;11.29;0.00
76496;BME280;65329;52.544;4.662;2022-12-29T07:25:18;67998.69;;;11.31;0.00
76496;BME280;65329;52.544;4.662;2022-12-29T07:27:45;68039.28;;;11.31;0.00
76496;BME280;65329;52.544;4.662;2022-12-29T07:30:12;68043.91;;;11.35;0.00
76496;BME280;65329;52.544;4.662;2022-12-29T07:32:38;67997.16;;;11.32;0.00
76496;BME280;65329;52.544;4.662;2022-12-29T07:35:05;68028.81;;;11.36;0.00
76496;BME280;65329;52.544;4.662;2022-12-29T07:37:33;68064.41;;;11.34;0.00
76496;BME280;65329;52.544;4.662;2022-12-29T07:40:01;68157.59;;;11.35;0.00
76496;BME280;65329;52.544;4.662;2022-12-29T07:42:31;68117.75;;;11.38;0.00
76496;BME280;65329;52.544;4.662;2022-12-29T07:44:58;68130.13;;;11.37;0.00
76496;BME280;65329;52.544;4.662;2022-12-29T07:47:30;68110.78;;;11.39;0.00
76496;BME280;65329;52.544;4.662;2022-12-29T07:49:56;68141.91;;;11.36;0.00
76496;BME280;65329;52.544;4.662;2022-12-29T07:52:23;68166.47;;;11.38;0.00
76496;BME280;65329;52.544;4.662;2022-12-29T07:54:50;68248.25;;;11.39;0.00
76496;BME280;65329;52.544;4.662;2022-12-29T07:57:16;68239.16;;;11.40;0.00
76496;BME280;65329;52.544;4.662;2022-12-29T07:59:43;68189.28;;;11.39;0.00
76496;BME280;65329;52.544;4.662;2022-12-29T08:02:11;68173.03;;;11.39;0.00
76496;BME280;65329;52.544;4.662;2022-12-29T08:04:38;68337.97;;;11.37;0.00
76496;BME280;65329;52.544;4.662;2022-12-29T08:07:05;68575.19;;;11.38;0.00
76496;BME280;65329;52.544;4.662;2022-12-29T08:09:32;68730.84;;;11.42;0.00
76496;BME280;65329;52.544;4.662;2022-12-29T08:11:58;68849.97;;;11.42;0.00
76496;BME280;65329;52.544;4.662;2022-12-29T08:14:25;68662.59;;;11.41;0.00
76496;BME280;65329;52.544;4.662;2022-12-29T08:16:52;68667.59;;;11.36;0.00
76496;BME280;65329;52.544;4.662;2022-12-29T08:19:18;69610.22;;;11.41;0.00
76496;BME280;65329;52.544;4.662;2022-12-29T08:21:45;69273.28;;;11.40;0.00
76496;BME280;65329;52.544;4.662;2022-12-29T08:24:12;69136.59;;;11.44;0.00
76496;BME280;65329;52.544;4.662;2022-12-29T08:26:39;68606.13;;;11.39;0.00
76496;BME280;65329;52.544;4.662;2022-12-29T08:29:06;68719.06;;;11.43;0.00
76496;BME280;65329;52.544;4.662;2022-12-29T08:31:32;68802.03;;;11.45;0.00
76496;BME280;65329;52.544;4.662;2022-12-29T08:33:59;69115.53;;;11.44;0.00
76496;BME280;65329;52.544;4.662;2022-12-29T08:36:26;69914.50;;;11.51;0.00
76496;BME280;65329;52.544;4.662;2022-12-29T08:38:53;69261.84;;;11.51;0.00
76496;BME280;65329;52.544;4.662;2022-12-29T08:41:20;69582.66;;;11.48;0.00
76496;BME280;65329;52.544;4.662;2022-12-29T08:43:48;69113.63;;;11.47;0.00
76496;BME280;65329;52.544;4.662;2022-12-29T08:46:15;68678.28;;;11.48;0.00
76496;BME280;65329;52.544;4.662;2022-12-29T08:48:42;68319.59;;;11.44;0.00
76496;BME280;65329;52.544;4.662;2022-12-29T08:51:08;68669.00;;;11.47;0.00
76496;BME280;65329;52.544;4.662;2022-12-29T08:53:35;68868.63;;;11.51;0.00
76496;BME280;65329;52.544;4.662;2022-12-29T08:56:02;69253.38;;;11.53;0.00
76496;BME280;65329;52.544;4.662;2022-12-29T08:58:40;69834.63;;;11.59;0.00
76496;BME280;65329;52.544;4.662;2022-12-29T09:01:07;69054.94;;;11.57;0.00
76496;BME280;65329;52.544;4.662;2022-12-29T09:03:34;69139.25;;;11.55;0.00
76496;BME280;65329;52.544;4.662;2022-12-29T09:06:21;69296.91;;;11.56;0.00
76496;BME280;65329;52.544;4.662;2022-12-29T09:08:48;69697.16;;;11.55;0.00
76496;BME280;65329;52.544;4.662;2022-12-29T09:11:21;69311.88;;;11.59;0.00
76496;BME280;65329;52.544;4.662;2022-12-29T09:13:49;69842.06;;;11.64;0.00
76496;BME280;65329;52.544;4.662;2022-12-29T09:16:16;68754.81;;;11.63;0.00
76496;BME280;65329;52.544;4.662;2022-12-29T09:18:44;68769.50;;;11.64;0.00
76496;BME280;65329;52.544;4.662;2022-12-29T09:21:11;69271.13;;;11.64;0.00
76496;BME280;65329;52.544;4.662;2022-12-29T09:23:39;69015.59;;;11.66;0.00
76496;BME280;65329;52.544;4.662;2022-12-29T09:26:06;69656.59;;;11.67;0.00
76496;BME280;65329;52.544;4.662;2022-12-29T09:28:34;69863.91;;;11.71;0.00
76496;BME280;65329;52.544;4.662;2022-12-29T09:31:01;69674.75;;;11.76;0.00
76496;BME280;65329;52.544;4.662;2022-12-29T09:33:28;69603.88;;;11.82;0.00
76496;BME280;65329;52.544;4.662;2022-12-29T09:35:57;69891.34;;;11.85;0.00
76496;BME280;65329;52.544;4.662;2022-12-29T09:38:25;69844.94;;;11.87;0.00
76496;BME280;65329;52.544;4.662;2022-12-29T09:40:55;69313.94;;;11.94;0.00
76496;BME280;65329;52.544;4.662;2022-12-29T09:48:44;69943.19;;;11.99;0.00
76496;BME280;65329;52.544;4.662;2022-12-29T09:51:15;69791.41;;;11.99;0.00
76496;BME280;65329;52.544;4.662;2022-12-29T09:53:45;69763.19;;;11.93;0.00
76496;BME280;65329;52.544;4.662;2022-12-29T09:56:19;69875.16;;;11.96;0.00
76496;BME280;65329;52.544;4.662;2022-12-29T09:58:52;69708.78;;;12.02;0.00
76496;BME280;65329;52.544;4.662;2022-12-29T10:04:13;64566.47;;;12.36;0.00
76496;BME280;65329;52.544;4.662;2022-12-29T10:06:51;64432.16;;;12.86;0.00
76496;BME280;65329;52.544;4.662;2022-12-29T10:09:49;64448.88;;;13.31;0.00
76496;BME280;65329;52.544;4.662;2022-12-29T10:12:46;64459.53;;;13.66;0.00
76496;BME280;65329;52.544;4.662;2022-12-29T10:18:53;64574.06;;;14.21;0.00
76496;BME280;65329;52.544;4.662;2022-12-29T10:21:47;64578.59;;;14.43;0.00
76496;BME280;65329;52.544;4.662;2022-12-29T10:24:18;64545.06;;;14.62;0.00
76496;BME280;65329;52.544;4.662;2022-12-29T10:26:51;64577.81;;;14.79;0.00
76496;BME280;65329;52.544;4.662;2022-12-29T10:29:25;64558.38;;;14.96;0.00
76496;BME280;65329;52.544;4.662;2022-12-29T10:32:06;68181.41;;;14.83;0.00
76496;BME280;65329;52.544;4.662;2022-12-29T10:34:47;65689.75;;;14.67;0.00
76496;BME280;65329;52.544;4.662;2022-12-29T10:39:50;64529.22;;;15.29;0.00
76496;BME280;65329;52.544;4.662;2022-12-29T10:42:37;67478.41;;;15.38;0.00
76496;BME280;65329;52.544;4.662;2022-12-29T10:45:12;64730.81;;;15.55;0.00
76496;BME280;65329;52.544;4.662;2022-12-29T10:48:00;68057.78;;;15.25;0.00
76496;BME280;65329;52.544;4.662;2022-12-29T10:50:28;69917.28;;;15.08;0.00
76496;BME280;65329;52.544;4.662;2022-12-29T10:52:59;69816.34;;;14.82;0.00
76496;BME280;65329;52.544;4.662;2022-12-29T10:55:35;68667.53;;;14.68;0.00
76496;BME280;65329;52.544;4.662;2022-12-29T10:58:05;69200.69;;;14.91;0.00
76496;BME280;65329;52.544;4.662;2022-12-29T11:00:33;69796.94;;;14.84;0.00
76496;BME280;65329;52.544;4.662;2022-12-29T11:06:01;69749.41;;;14.53;0.00
76496;BME280;65329;52.544;4.662;2022-12-29T11:08:36;64846.50;;;14.81;0.00
76496;BME280;65329;52.544;4.662;2022-12-29T11:11:09;64815.28;;;15.10;0.00
76496;BME280;65329;52.544;4.662;2022-12-29T11:13:57;64937.44;;;15.29;0.00
76496;BME280;65329;52.544;4.662;2022-12-29T11:16:33;67168.75;;;15.21;0.00
76496;BME280;65329;52.544;4.662;2022-12-29T11:19:01;65023.94;;;15.29;0.00
76496;BME280;65329;52.544;4.662;2022-12-29T11:21:37;65099.69;;;15.33;0.00
76496;BME280;65329;52.544;4.662;2022-12-29T11:24:18;65278.97;;;15.43;0.00
76496;BME280;65329;52.544;4.662;2022-12-29T11:26:45;65807.84;;;15.49;0.00
76496;BME280;65329;52.544;4.662;2022-12-29T11:34:24;66382.31;;;15.46;0.00
76496;BME280;65329;52.544;4.662;2022-12-29T11:37:01;69710.31;;;15.26;0.00
76496;BME280;65329;52.544;4.662;2022-12-29T11:39:36;68859.94;;;15.14;0.00
76496;BME280;65329;52.544;4.662;2022-12-29T11:42:06;67871.53;;;15.07;0.00
76496;BME280;65329;52.544;4.662;2022-12-29T11:44:43;66900.59;;;15.03;0.00
76496;BME280;65329;52.544;4.662;2022-12-29T11:47:20;67618.31;;;15.07;0.00
76496;BME280;65329;52.544;4.662;2022-12-29T11:49:54;67866.50;;;15.05;0.00
76496;BME280;65329;52.544;4.662;2022-12-29T11:52:23;67764.78;;;15.07;0.00
76496;BME280;65329;52.544;4.662;2022-12-29T11:54:53;68511.03;;;15.02;0.00
76496;BME280;65329;52.544;4.662;2022-12-29T11:57:22;69508.81;;;14.96;0.00
76496;BME280;65329;52.544;4.662;2022-12-29T12:05:15;69201.44;;;14.87;0.00
76496;BME280;65329;52.544;4.662;2022-12-29T12:07:49;69148.34;;;14.84;0.00
76496;BME280;65329;52.544;4.662;2022-12-29T12:10:26;67243.22;;;14.86;0.00
76496;BME280;65329;52.544;4.662;2022-12-29T12:13:29;67492.44;;;14.95;0.00
76496;BME280;65329;52.544;4.662;2022-12-29T12:16:06;67040.44;;;15.02;0.00
76496;BME280;65329;52.544;4.662;2022-12-29T12:18:46;67139.22;;;15.07;0.00
76496;BME280;65329;52.544;4.662;2022-12-29T12:21:40;67917.38;;;15.09;0.00
76496;BME280;65329;52.544;4.662;2022-12-29T12:24:34;66983.84;;;15.14;0.00
76496;BME280;65329;52.544;4.662;2022-12-29T12:27:14;69003.88;;;15.09;0.00
76496;BME280;65329;52.544;4.662;2022-12-29T12:29:52;69030.34;;;14.99;0.00
76496;BME280;65329;52.544;4.662;2022-12-29T12:32:29;69268.56;;;14.89;0.00
76496;BME280;65329;52.544;4.662;2022-12-29T12:35:01;68824.38;;;14.84;0.00
76496;BME280;65329;52.544;4.662;2022-12-29T12:38:03;69012.41;;;14.79;0.00
76496;BME280;65329;52.544;4.662;2022-12-29T12:43:31;68168.16;;;14.72;0.00
76496;BME280;65329;52.544;4.662;2022-12-29T12:46:28;67661.31;;;14.78;0.00
76496;BME280;65329;52.544;4.662;2022-12-29T12:49:30;67727.34;;;14.81;0.00
76496;BME280;65329;52.544;4.662;2022-12-29T12:58:22;67414.94;;;14.91;0.00
76496;BME280;65329;52.544;4.662;2022-12-29T13:06:41;68569.28;;;14.87;0.00
76496;BME280;65329;52.544;4.662;2022-12-29T13:17:43;69829.16;;;14.56;0.00
76496;BME280;65329;52.544;4.662;2022-12-29T13:20:46;69886.22;;;14.49;0.00
76496;BME280;65329;52.544;4.662;2022-12-29T13:28:44;69644.56;;;14.31;0.00
76496;BME280;65329;52.544;4.662;2022-12-29T13:31:18;69566.41;;;14.27;0.00
76496;BME280;65329;52.544;4.662;2022-12-29T13:34:10;69167.56;;;14.40;0.00
76496;BME280;65329;52.544;4.662;2022-12-29T13:36:48;69086.19;;;14.42;0.00
76496;BME280;65329;52.544;4.662;2022-12-29T13:39:32;69231.16;;;14.45;0.00
76496;BME280;65329;52.544;4.662;2022-12-29T13:42:02;69183.16;;;14.44;0.00
76496;BME280;65329;52.544;4.662;2022-12-29T13:58:20;69526.69;;;11.23;0.00
76496;BME280;65329;52.544;4.662;2022-12-29T14:00:28;69592.28;;;11.63;0.00
76496;BME280;65329;52.544;4.662;2022-12-29T14:08:54;69610.81;;;12.43;0.00
76496;BME280;65329;52.544;4.662;2022-12-29T14:11:24;69564.69;;;12.55;0.00
76496;BME280;65329;52.544;4.662;2022-12-29T14:13:55;69543.22;;;12.69;0.00
76496;BME280;65329;52.544;4.662;2022-12-29T14:16:31;69576.00;;;12.83;0.00
76496;BME280;65329;52.544;4.662;2022-12-29T14:19:19;69575.41;;;12.94;0.00
76496;BME280;65329;52.544;4.662;2022-12-29T14:22:09;69640.31;;;13.03;0.00
76496;BME280;65329;52.544;4.662;2022-12-29T14:24:42;69578.34;;;13.08;0.00
76496;BME280;65329;52.544;4.662;2022-12-29T14:34:48;69155.63;;;13.11;0.00
76496;BME280;65329;52.544;4.662;2022-12-29T14:39:48;69349.63;;;13.19;0.00
76496;BME280;65329;52.544;4.662;2022-12-29T14:42:19;68950.50;;;13.19;0.00
76496;BME280;65329;52.544;4.662;2022-12-29T14:44:56;68708.09;;;13.16;0.00
76496;BME280;65329;52.544;4.662;2022-12-29T14:47:46;68639.06;;;13.08;0.00
76496;BME280;65329;52.544;4.662;2022-12-29T14:50:17;68798.44;;;13.05;0.00
76496;BME280;65329;52.544;4.662;2022-12-29T14:58:20;69043.47;;;13.01;0.00
76496;BME280;65329;52.544;4.662;2022-12-29T15:00:49;69120.28;;;13.04;0.00
76496;BME280;65329;52.544;4.662;2022-12-29T15:03:32;69142.38;;;13.02;0.00
76496;BME280;65329;52.544;4.662;2022-12-29T15:06:06;69188.88;;;13.00;0.00
76496;BME280;65329;52.544;4.662;2022-12-29T15:08:38;69076.41;;;12.99;0.00
76496;BME280;65329;52.544;4.662;2022-12-29T15:11:12;68880.94;;;12.92;0.00
76496;BME280;65329;52.544;4.662;2022-12-29T15:13:42;68773.16;;;12.88;0.00
76496;BME280;65329;52.544;4.662;2022-12-29T15:16:34;68674.31;;;12.87;0.00
76496;BME280;65329;52.544;4.662;2022-12-29T15:19:03;68586.50;;;12.81;0.00
76496;BME280;65329;52.544;4.662;2022-12-29T15:21:34;68515.00;;;12.76;0.00
76496;BME280;65329;52.544;4.662;2022-12-29T15:24:02;68427.59;;;12.75;0.00
76496;BME280;65329;52.544;4.662;2022-12-29T15:26:41;68375.28;;;12.72;0.00
76496;BME280;65329;52.544;4.662;2022-12-29T15:29:38;68326.69;;;12.68;0.00
76496;BME280;65329;52.544;4.662;2022-12-29T15:32:25;68270.53;;;12.64;0.00
76496;BME280;65329;52.544;4.662;2022-12-29T15:34:54;68256.59;;;12.59;0.00
76496;BME280;65329;52.544;4.662;2022-12-29T15:37:27;68200.06;;;12.57;0.00
76496;BME280;65329;52.544;4.662;2022-12-29T15:39:55;68236.84;;;12.56;0.00
76496;BME280;65329;52.544;4.662;2022-12-29T15:44:54;68140.03;;;12.52;0.00
76496;BME280;65329;52.544;4.662;2022-12-29T15:47:35;68133.25;;;12.48;0.00